sensor_id;sensor_type;location;lat;lon;timestamp;P1;durP1;ratioP1;P2;durP2;ratioP2
65759;SDS011;52496;51.082;5.066;2023-04-23T00:00:21;42.65;;;20.90;;
65759;SDS011;52496;51.082;5.066;2023-04-23T00:02:52;54.63;;;23.75;;
65759;SDS011;52496;51.082;5.066;2023-04-23T00:05:24;45.35;;;22.38;;
65759;SDS011;52496;51.082;5.066;2023-04-23T00:07:56;49.60;;;23.75;;
65759;SDS011;52496;51.082;5.066;2023-04-23T00:10:29;44.00;;;21.30;;
65759;SDS011;52496;51.082;5.066;2023-04-23T00:13:00;43.25;;;22.55;;
65759;SDS011;52496;51.082;5.066;2023-04-23T00:15:31;46.13;;;23.25;;
65759;SDS011;52496;51.082;5.066;2023-04-23T00:18:02;42.70;;;21.02;;
65759;SDS011;52496;51.082;5.066;2023-04-23T00:20:33;46.08;;;23.08;;
65759;SDS011;52496;51.082;5.066;2023-04-23T00:23:04;42.97;;;22.73;;
65759;SDS011;52496;51.082;5.066;2023-04-23T00:25:35;43.33;;;22.63;;
65759;SDS011;52496;51.082;5.066;2023-04-23T00:28:05;50.72;;;23.25;;
65759;SDS011;52496;51.082;5.066;2023-04-23T00:30:36;47.72;;;25.73;;
65759;SDS011;52496;51.082;5.066;2023-04-23T00:33:06;49.92;;;23.45;;
65759;SDS011;52496;51.082;5.066;2023-04-23T00:35:37;54.00;;;25.02;;
65759;SDS011;52496;51.082;5.066;2023-04-23T00:38:08;47.63;;;23.58;;
65759;SDS011;52496;51.082;5.066;2023-04-23T00:40:38;43.05;;;21.73;;
65759;SDS011;52496;51.082;5.066;2023-04-23T00:43:09;41.92;;;21.70;;
65759;SDS011;52496;51.082;5.066;2023-04-23T00:45:40;43.05;;;22.38;;
65759;SDS011;52496;51.082;5.066;2023-04-23T00:48:11;40.08;;;21.67;;
65759;SDS011;52496;51.082;5.066;2023-04-23T00:50:41;41.28;;;21.88;;
65759;SDS011;52496;51.082;5.066;2023-04-23T00:53:12;45.50;;;22.48;;
65759;SDS011;52496;51.082;5.066;2023-04-23T00:55:42;42.65;;;22.33;;
65759;SDS011;52496;51.082;5.066;2023-04-23T00:58:13;42.40;;;22.42;;
65759;SDS011;52496;51.082;5.066;2023-04-23T01:00:44;43.25;;;22.92;;
65759;SDS011;52496;51.082;5.066;2023-04-23T01:03:17;38.00;;;22.73;;
65759;SDS011;52496;51.082;5.066;2023-04-23T01:05:50;38.55;;;21.65;;
65759;SDS011;52496;51.082;5.066;2023-04-23T01:08:21;41.10;;;21.73;;
65759;SDS011;52496;51.082;5.066;2023-04-23T01:10:54;38.47;;;20.50;;
65759;SDS011;52496;51.082;5.066;2023-04-23T01:13:24;37.30;;;22.20;;
65759;SDS011;52496;51.082;5.066;2023-04-23T01:15:58;38.03;;;21.55;;
65759;SDS011;52496;51.082;5.066;2023-04-23T01:18:29;38.55;;;22.50;;
65759;SDS011;52496;51.082;5.066;2023-04-23T01:20:59;43.70;;;22.48;;
65759;SDS011;52496;51.082;5.066;2023-04-23T01:23:31;35.90;;;20.30;;
65759;SDS011;52496;51.082;5.066;2023-04-23T01:26:01;40.47;;;21.20;;
65759;SDS011;52496;51.082;5.066;2023-04-23T01:28:32;35.45;;;20.05;;
65759;SDS011;52496;51.082;5.066;2023-04-23T01:31:04;40.20;;;21.48;;
65759;SDS011;52496;51.082;5.066;2023-04-23T01:33:34;41.08;;;21.77;;
65759;SDS011;52496;51.082;5.066;2023-04-23T01:36:06;39.17;;;20.60;;
65759;SDS011;52496;51.082;5.066;2023-04-23T01:38:37;32.80;;;18.52;;
65759;SDS011;52496;51.082;5.066;2023-04-23T01:41:08;35.58;;;19.83;;
65759;SDS011;52496;51.082;5.066;2023-04-23T01:43:40;32.88;;;18.90;;
65759;SDS011;52496;51.082;5.066;2023-04-23T01:46:11;31.00;;;18.30;;
65759;SDS011;52496;51.082;5.066;2023-04-23T01:48:42;33.25;;;18.77;;
65759;SDS011;52496;51.082;5.066;2023-04-23T01:51:13;32.65;;;18.20;;
65759;SDS011;52496;51.082;5.066;2023-04-23T01:56:33;37.90;;;20.02;;
65759;SDS011;52496;51.082;5.066;2023-04-23T01:59:06;30.40;;;17.88;;
65759;SDS011;52496;51.082;5.066;2023-04-23T02:01:43;31.88;;;18.25;;
65759;SDS011;52496;51.082;5.066;2023-04-23T02:04:16;33.00;;;18.67;;
65759;SDS011;52496;51.082;5.066;2023-04-23T02:06:48;31.42;;;17.88;;
65759;SDS011;52496;51.082;5.066;2023-04-23T02:09:20;28.30;;;17.08;;
65759;SDS011;52496;51.082;5.066;2023-04-23T02:11:50;32.88;;;17.42;;
65759;SDS011;52496;51.082;5.066;2023-04-23T02:14:21;27.67;;;17.30;;
65759;SDS011;52496;51.082;5.066;2023-04-23T02:16:51;30.92;;;17.75;;
65759;SDS011;52496;51.082;5.066;2023-04-23T02:19:22;31.77;;;18.67;;
65759;SDS011;52496;51.082;5.066;2023-04-23T02:21:52;35.15;;;18.95;;
65759;SDS011;52496;51.082;5.066;2023-04-23T02:24:23;34.47;;;18.45;;
65759;SDS011;52496;51.082;5.066;2023-04-23T02:26:53;35.13;;;18.30;;
65759;SDS011;52496;51.082;5.066;2023-04-23T02:29:24;29.48;;;17.05;;
65759;SDS011;52496;51.082;5.066;2023-04-23T02:31:54;32.03;;;17.50;;
65759;SDS011;52496;51.082;5.066;2023-04-23T02:34:25;32.72;;;18.65;;
65759;SDS011;52496;51.082;5.066;2023-04-23T02:36:56;36.05;;;19.10;;
65759;SDS011;52496;51.082;5.066;2023-04-23T02:39:26;28.80;;;16.85;;
65759;SDS011;52496;51.082;5.066;2023-04-23T02:41:57;31.48;;;17.67;;
65759;SDS011;52496;51.082;5.066;2023-04-23T02:44:27;34.78;;;20.10;;
65759;SDS011;52496;51.082;5.066;2023-04-23T02:46:58;30.08;;;18.58;;
65759;SDS011;52496;51.082;5.066;2023-04-23T02:49:28;30.17;;;17.52;;
65759;SDS011;52496;51.082;5.066;2023-04-23T02:51:59;32.85;;;17.75;;
65759;SDS011;52496;51.082;5.066;2023-04-23T02:54:30;34.22;;;19.38;;
65759;SDS011;52496;51.082;5.066;2023-04-23T02:57:01;33.35;;;17.80;;
65759;SDS011;52496;51.082;5.066;2023-04-23T02:59:33;31.20;;;17.25;;
65759;SDS011;52496;51.082;5.066;2023-04-23T03:02:04;32.40;;;17.65;;
65759;SDS011;52496;51.082;5.066;2023-04-23T03:04:34;29.98;;;18.25;;
65759;SDS011;52496;51.082;5.066;2023-04-23T03:07:05;32.22;;;17.88;;
65759;SDS011;52496;51.082;5.066;2023-04-23T03:09:35;30.10;;;16.40;;
65759;SDS011;52496;51.082;5.066;2023-04-23T03:12:06;34.75;;;17.52;;
65759;SDS011;52496;51.082;5.066;2023-04-23T03:14:36;30.50;;;16.73;;
65759;SDS011;52496;51.082;5.066;2023-04-23T03:17:07;29.20;;;17.58;;
65759;SDS011;52496;51.082;5.066;2023-04-23T03:19:37;36.28;;;18.40;;
65759;SDS011;52496;51.082;5.066;2023-04-23T03:22:08;28.77;;;15.70;;
65759;SDS011;52496;51.082;5.066;2023-04-23T03:24:39;30.67;;;16.98;;
65759;SDS011;52496;51.082;5.066;2023-04-23T03:27:09;30.92;;;16.40;;
65759;SDS011;52496;51.082;5.066;2023-04-23T03:29:40;31.02;;;16.33;;
65759;SDS011;52496;51.082;5.066;2023-04-23T03:32:11;26.98;;;16.63;;
65759;SDS011;52496;51.082;5.066;2023-04-23T03:34:41;27.70;;;15.65;;
65759;SDS011;52496;51.082;5.066;2023-04-23T03:37:12;25.85;;;16.10;;
65759;SDS011;52496;51.082;5.066;2023-04-23T03:39:42;29.88;;;17.40;;
65759;SDS011;52496;51.082;5.066;2023-04-23T03:42:13;29.73;;;16.65;;
65759;SDS011;52496;51.082;5.066;2023-04-23T03:44:43;28.60;;;16.00;;
65759;SDS011;52496;51.082;5.066;2023-04-23T03:47:14;27.40;;;15.93;;
65759;SDS011;52496;51.082;5.066;2023-04-23T03:49:45;25.48;;;13.98;;
65759;SDS011;52496;51.082;5.066;2023-04-23T03:52:15;28.13;;;16.58;;
65759;SDS011;52496;51.082;5.066;2023-04-23T03:54:46;25.42;;;15.30;;
65759;SDS011;52496;51.082;5.066;2023-04-23T03:57:16;29.17;;;15.95;;
65759;SDS011;52496;51.082;5.066;2023-04-23T03:59:47;30.98;;;16.17;;
65759;SDS011;52496;51.082;5.066;2023-04-23T04:02:18;27.60;;;15.77;;
65759;SDS011;52496;51.082;5.066;2023-04-23T04:04:49;30.90;;;15.63;;
65759;SDS011;52496;51.082;5.066;2023-04-23T04:07:20;31.30;;;17.05;;
65759;SDS011;52496;51.082;5.066;2023-04-23T04:09:51;31.73;;;16.65;;
65759;SDS011;52496;51.082;5.066;2023-04-23T04:12:21;32.08;;;18.08;;
65759;SDS011;52496;51.082;5.066;2023-04-23T04:14:52;31.50;;;16.52;;
65759;SDS011;52496;51.082;5.066;2023-04-23T04:17:22;38.03;;;18.98;;
65759;SDS011;52496;51.082;5.066;2023-04-23T04:19:53;31.13;;;16.35;;
65759;SDS011;52496;51.082;5.066;2023-04-23T04:22:23;29.13;;;17.10;;
65759;SDS011;52496;51.082;5.066;2023-04-23T04:24:53;30.83;;;16.35;;
65759;SDS011;52496;51.082;5.066;2023-04-23T04:27:25;29.25;;;15.98;;
65759;SDS011;52496;51.082;5.066;2023-04-23T04:29:56;28.38;;;16.23;;
65759;SDS011;52496;51.082;5.066;2023-04-23T04:32:26;31.90;;;16.85;;
65759;SDS011;52496;51.082;5.066;2023-04-23T04:34:57;27.88;;;15.10;;
65759;SDS011;52496;51.082;5.066;2023-04-23T04:37:27;30.02;;;16.48;;
65759;SDS011;52496;51.082;5.066;2023-04-23T04:39:58;29.77;;;15.55;;
65759;SDS011;52496;51.082;5.066;2023-04-23T04:42:30;30.88;;;15.57;;
65759;SDS011;52496;51.082;5.066;2023-04-23T04:45:00;27.70;;;15.55;;
65759;SDS011;52496;51.082;5.066;2023-04-23T04:47:31;45.67;;;19.35;;
65759;SDS011;52496;51.082;5.066;2023-04-23T04:50:02;36.53;;;18.90;;
65759;SDS011;52496;51.082;5.066;2023-04-23T04:52:34;34.83;;;18.48;;
65759;SDS011;52496;51.082;5.066;2023-04-23T04:55:05;37.22;;;17.95;;
65759;SDS011;52496;51.082;5.066;2023-04-23T04:57:38;33.45;;;18.15;;
65759;SDS011;52496;51.082;5.066;2023-04-23T05:00:19;35.72;;;17.20;;
65759;SDS011;52496;51.082;5.066;2023-04-23T05:02:54;35.05;;;17.92;;
65759;SDS011;52496;51.082;5.066;2023-04-23T05:05:26;36.17;;;17.45;;
65759;SDS011;52496;51.082;5.066;2023-04-23T05:08:00;33.75;;;17.02;;
65759;SDS011;52496;51.082;5.066;2023-04-23T05:10:33;28.17;;;15.27;;
65759;SDS011;52496;51.082;5.066;2023-04-23T05:13:04;28.27;;;15.05;;
65759;SDS011;52496;51.082;5.066;2023-04-23T05:15:34;25.25;;;14.57;;
65759;SDS011;52496;51.082;5.066;2023-04-23T05:18:05;26.77;;;14.52;;
65759;SDS011;52496;51.082;5.066;2023-04-23T05:20:36;27.00;;;15.38;;
65759;SDS011;52496;51.082;5.066;2023-04-23T05:23:07;24.92;;;14.23;;
65759;SDS011;52496;51.082;5.066;2023-04-23T05:25:40;24.63;;;13.00;;
65759;SDS011;52496;51.082;5.066;2023-04-23T05:28:10;24.83;;;12.95;;
65759;SDS011;52496;51.082;5.066;2023-04-23T05:30:41;25.30;;;13.40;;
65759;SDS011;52496;51.082;5.066;2023-04-23T05:33:12;22.95;;;12.65;;
65759;SDS011;52496;51.082;5.066;2023-04-23T05:35:43;21.20;;;13.07;;
65759;SDS011;52496;51.082;5.066;2023-04-23T05:38:13;24.98;;;12.80;;
65759;SDS011;52496;51.082;5.066;2023-04-23T05:40:44;21.25;;;12.05;;
65759;SDS011;52496;51.082;5.066;2023-04-23T05:43:15;19.80;;;12.10;;
65759;SDS011;52496;51.082;5.066;2023-04-23T05:45:45;19.05;;;10.85;;
65759;SDS011;52496;51.082;5.066;2023-04-23T05:48:16;20.83;;;11.52;;
65759;SDS011;52496;51.082;5.066;2023-04-23T05:50:46;19.73;;;11.35;;
65759;SDS011;52496;51.082;5.066;2023-04-23T05:53:18;19.70;;;11.68;;
65759;SDS011;52496;51.082;5.066;2023-04-23T05:55:49;24.00;;;11.85;;
65759;SDS011;52496;51.082;5.066;2023-04-23T05:58:19;17.85;;;10.48;;
65759;SDS011;52496;51.082;5.066;2023-04-23T06:00:50;17.15;;;10.18;;
65759;SDS011;52496;51.082;5.066;2023-04-23T06:03:22;18.08;;;10.73;;
65759;SDS011;52496;51.082;5.066;2023-04-23T06:05:52;18.52;;;10.52;;
65759;SDS011;52496;51.082;5.066;2023-04-23T06:08:22;15.93;;;10.30;;
65759;SDS011;52496;51.082;5.066;2023-04-23T06:10:53;17.10;;;10.27;;
65759;SDS011;52496;51.082;5.066;2023-04-23T06:13:25;17.75;;;9.32;;
65759;SDS011;52496;51.082;5.066;2023-04-23T06:15:57;17.20;;;8.77;;
65759;SDS011;52496;51.082;5.066;2023-04-23T06:18:27;16.77;;;9.00;;
65759;SDS011;52496;51.082;5.066;2023-04-23T06:20:58;14.15;;;8.57;;
65759;SDS011;52496;51.082;5.066;2023-04-23T06:23:33;14.55;;;7.97;;
65759;SDS011;52496;51.082;5.066;2023-04-23T06:26:03;16.33;;;9.05;;
65759;SDS011;52496;51.082;5.066;2023-04-23T06:28:37;12.75;;;7.35;;
65759;SDS011;52496;51.082;5.066;2023-04-23T06:31:08;14.73;;;8.95;;
65759;SDS011;52496;51.082;5.066;2023-04-23T06:33:39;16.70;;;8.15;;
65759;SDS011;52496;51.082;5.066;2023-04-23T06:36:10;14.10;;;7.80;;
65759;SDS011;52496;51.082;5.066;2023-04-23T06:38:41;12.85;;;7.60;;
65759;SDS011;52496;51.082;5.066;2023-04-23T06:41:11;10.82;;;6.43;;
65759;SDS011;52496;51.082;5.066;2023-04-23T06:43:42;12.00;;;7.00;;
65759;SDS011;52496;51.082;5.066;2023-04-23T06:46:13;13.73;;;6.80;;
65759;SDS011;52496;51.082;5.066;2023-04-23T06:48:44;14.65;;;6.93;;
65759;SDS011;52496;51.082;5.066;2023-04-23T06:51:15;12.48;;;6.45;;
65759;SDS011;52496;51.082;5.066;2023-04-23T06:53:46;11.50;;;6.13;;
65759;SDS011;52496;51.082;5.066;2023-04-23T06:56:16;10.70;;;5.97;;
65759;SDS011;52496;51.082;5.066;2023-04-23T06:58:47;12.20;;;6.20;;
65759;SDS011;52496;51.082;5.066;2023-04-23T07:01:19;7.97;;;5.65;;
65759;SDS011;52496;51.082;5.066;2023-04-23T07:03:50;9.75;;;5.82;;
65759;SDS011;52496;51.082;5.066;2023-04-23T07:06:23;12.57;;;5.97;;
65759;SDS011;52496;51.082;5.066;2023-04-23T07:08:53;12.57;;;5.72;;
65759;SDS011;52496;51.082;5.066;2023-04-23T07:11:24;10.13;;;5.40;;
65759;SDS011;52496;51.082;5.066;2023-04-23T07:13:55;8.07;;;4.80;;
65759;SDS011;52496;51.082;5.066;2023-04-23T07:16:25;9.27;;;5.53;;
65759;SDS011;52496;51.082;5.066;2023-04-23T07:18:59;11.90;;;5.60;;
65759;SDS011;52496;51.082;5.066;2023-04-23T07:21:32;8.95;;;5.00;;
65759;SDS011;52496;51.082;5.066;2023-04-23T07:24:03;11.55;;;4.90;;
65759;SDS011;52496;51.082;5.066;2023-04-23T07:26:35;9.82;;;4.60;;
65759;SDS011;52496;51.082;5.066;2023-04-23T07:29:06;9.13;;;4.95;;
65759;SDS011;52496;51.082;5.066;2023-04-23T07:31:39;10.30;;;4.40;;
65759;SDS011;52496;51.082;5.066;2023-04-23T07:34:13;10.82;;;4.28;;
65759;SDS011;52496;51.082;5.066;2023-04-23T07:36:43;10.63;;;4.68;;
65759;SDS011;52496;51.082;5.066;2023-04-23T07:39:14;9.50;;;3.70;;
65759;SDS011;52496;51.082;5.066;2023-04-23T07:41:45;7.47;;;3.60;;
65759;SDS011;52496;51.082;5.066;2023-04-23T07:44:16;7.47;;;3.47;;
65759;SDS011;52496;51.082;5.066;2023-04-23T07:46:46;7.25;;;3.80;;
65759;SDS011;52496;51.082;5.066;2023-04-23T07:49:17;8.60;;;3.95;;
65759;SDS011;52496;51.082;5.066;2023-04-23T07:51:47;9.52;;;3.63;;
65759;SDS011;52496;51.082;5.066;2023-04-23T07:54:18;8.27;;;3.60;;
65759;SDS011;52496;51.082;5.066;2023-04-23T07:56:49;13.45;;;3.55;;
65759;SDS011;52496;51.082;5.066;2023-04-23T07:59:20;9.20;;;3.83;;
65759;SDS011;52496;51.082;5.066;2023-04-23T08:01:50;9.77;;;3.53;;
65759;SDS011;52496;51.082;5.066;2023-04-23T08:04:20;8.45;;;3.22;;
65759;SDS011;52496;51.082;5.066;2023-04-23T08:06:51;10.60;;;3.22;;
65759;SDS011;52496;51.082;5.066;2023-04-23T08:09:22;9.05;;;3.85;;
65759;SDS011;52496;51.082;5.066;2023-04-23T08:11:52;11.05;;;3.50;;
65759;SDS011;52496;51.082;5.066;2023-04-23T08:14:24;12.13;;;3.10;;
65759;SDS011;52496;51.082;5.066;2023-04-23T08:16:54;9.48;;;3.05;;
65759;SDS011;52496;51.082;5.066;2023-04-23T08:19:25;6.70;;;3.20;;
65759;SDS011;52496;51.082;5.066;2023-04-23T08:22:00;8.30;;;3.00;;
65759;SDS011;52496;51.082;5.066;2023-04-23T08:24:31;6.78;;;3.05;;
65759;SDS011;52496;51.082;5.066;2023-04-23T08:27:01;10.85;;;3.42;;
65759;SDS011;52496;51.082;5.066;2023-04-23T08:29:32;8.93;;;3.00;;
65759;SDS011;52496;51.082;5.066;2023-04-23T08:32:03;8.98;;;3.25;;
65759;SDS011;52496;51.082;5.066;2023-04-23T08:34:33;6.65;;;2.80;;
65759;SDS011;52496;51.082;5.066;2023-04-23T08:37:04;11.75;;;3.05;;
65759;SDS011;52496;51.082;5.066;2023-04-23T08:39:35;9.98;;;2.60;;
65759;SDS011;52496;51.082;5.066;2023-04-23T08:42:09;6.30;;;2.90;;
65759;SDS011;52496;51.082;5.066;2023-04-23T08:44:45;8.48;;;2.60;;
65759;SDS011;52496;51.082;5.066;2023-04-23T08:47:16;8.98;;;2.67;;
65759;SDS011;52496;51.082;5.066;2023-04-23T08:49:47;7.85;;;2.90;;
65759;SDS011;52496;51.082;5.066;2023-04-23T08:52:23;6.93;;;2.60;;
65759;SDS011;52496;51.082;5.066;2023-04-23T08:55:03;6.97;;;2.90;;
65759;SDS011;52496;51.082;5.066;2023-04-23T08:57:39;8.07;;;3.13;;
65759;SDS011;52496;51.082;5.066;2023-04-23T09:00:11;9.02;;;3.45;;
65759;SDS011;52496;51.082;5.066;2023-04-23T09:02:48;8.93;;;2.80;;
65759;SDS011;52496;51.082;5.066;2023-04-23T09:05:19;8.52;;;2.65;;
65759;SDS011;52496;51.082;5.066;2023-04-23T09:07:49;8.02;;;3.05;;
65759;SDS011;52496;51.082;5.066;2023-04-23T09:10:22;8.07;;;2.78;;
65759;SDS011;52496;51.082;5.066;2023-04-23T09:12:52;5.90;;;2.75;;
65759;SDS011;52496;51.082;5.066;2023-04-23T09:15:23;6.63;;;2.55;;
65759;SDS011;52496;51.082;5.066;2023-04-23T09:17:53;9.15;;;2.72;;
65759;SDS011;52496;51.082;5.066;2023-04-23T09:20:24;7.25;;;3.00;;
65759;SDS011;52496;51.082;5.066;2023-04-23T09:22:54;7.55;;;2.45;;
65759;SDS011;52496;51.082;5.066;2023-04-23T09:25:25;7.72;;;2.60;;
65759;SDS011;52496;51.082;5.066;2023-04-23T09:27:56;7.65;;;2.80;;
65759;SDS011;52496;51.082;5.066;2023-04-23T09:30:28;8.07;;;2.90;;
65759;SDS011;52496;51.082;5.066;2023-04-23T09:32:59;7.00;;;2.47;;
65759;SDS011;52496;51.082;5.066;2023-04-23T09:35:31;4.82;;;2.58;;
65759;SDS011;52496;51.082;5.066;2023-04-23T09:38:05;5.60;;;2.70;;
65759;SDS011;52496;51.082;5.066;2023-04-23T09:40:37;6.03;;;2.80;;
65759;SDS011;52496;51.082;5.066;2023-04-23T09:43:07;6.88;;;2.65;;
65759;SDS011;52496;51.082;5.066;2023-04-23T09:45:47;5.53;;;2.80;;
65759;SDS011;52496;51.082;5.066;2023-04-23T09:48:19;7.50;;;2.60;;
65759;SDS011;52496;51.082;5.066;2023-04-23T09:50:50;7.78;;;2.80;;
65759;SDS011;52496;51.082;5.066;2023-04-23T09:53:25;6.20;;;3.05;;
65759;SDS011;52496;51.082;5.066;2023-04-23T09:55:56;7.82;;;2.90;;
65759;SDS011;52496;51.082;5.066;2023-04-23T09:58:26;5.70;;;2.70;;
65759;SDS011;52496;51.082;5.066;2023-04-23T10:01:06;8.80;;;2.70;;
65759;SDS011;52496;51.082;5.066;2023-04-23T10:03:41;7.70;;;2.72;;
65759;SDS011;52496;51.082;5.066;2023-04-23T10:06:13;9.48;;;2.80;;
65759;SDS011;52496;51.082;5.066;2023-04-23T10:08:46;6.07;;;2.40;;
65759;SDS011;52496;51.082;5.066;2023-04-23T10:11:17;6.43;;;2.38;;
65759;SDS011;52496;51.082;5.066;2023-04-23T10:13:48;6.82;;;2.35;;
65759;SDS011;52496;51.082;5.066;2023-04-23T10:16:19;5.53;;;2.38;;
65759;SDS011;52496;51.082;5.066;2023-04-23T10:18:50;7.70;;;2.42;;
65759;SDS011;52496;51.082;5.066;2023-04-23T10:21:24;5.15;;;2.40;;
65759;SDS011;52496;51.082;5.066;2023-04-23T10:23:58;7.25;;;2.60;;
65759;SDS011;52496;51.082;5.066;2023-04-23T10:26:31;9.77;;;2.50;;
65759;SDS011;52496;51.082;5.066;2023-04-23T10:29:02;10.07;;;2.60;;
65759;SDS011;52496;51.082;5.066;2023-04-23T10:31:35;6.15;;;2.15;;
65759;SDS011;52496;51.082;5.066;2023-04-23T10:34:06;7.03;;;2.45;;
65759;SDS011;52496;51.082;5.066;2023-04-23T10:36:39;8.25;;;2.45;;
65759;SDS011;52496;51.082;5.066;2023-04-23T10:39:10;9.32;;;2.60;;
65759;SDS011;52496;51.082;5.066;2023-04-23T10:41:42;8.57;;;2.38;;
65759;SDS011;52496;51.082;5.066;2023-04-23T10:44:13;5.63;;;2.22;;
65759;SDS011;52496;51.082;5.066;2023-04-23T10:46:54;6.55;;;2.40;;
65759;SDS011;52496;51.082;5.066;2023-04-23T10:49:35;6.22;;;1.90;;
65759;SDS011;52496;51.082;5.066;2023-04-23T10:52:09;9.52;;;2.60;;
65759;SDS011;52496;51.082;5.066;2023-04-23T10:54:48;9.63;;;2.88;;
65759;SDS011;52496;51.082;5.066;2023-04-23T10:57:26;5.38;;;2.20;;
65759;SDS011;52496;51.082;5.066;2023-04-23T10:59:56;4.95;;;2.00;;
65759;SDS011;52496;51.082;5.066;2023-04-23T11:02:28;6.85;;;2.10;;
65759;SDS011;52496;51.082;5.066;2023-04-23T11:05:13;3.67;;;1.77;;
65759;SDS011;52496;51.082;5.066;2023-04-23T11:13:24;5.20;;;2.03;;
65759;SDS011;52496;51.082;5.066;2023-04-23T11:16:16;5.55;;;2.10;;
65759;SDS011;52496;51.082;5.066;2023-04-23T11:19:09;5.40;;;2.10;;
65759;SDS011;52496;51.082;5.066;2023-04-23T11:24:33;6.35;;;2.08;;
65759;SDS011;52496;51.082;5.066;2023-04-23T11:27:12;4.97;;;2.03;;
65759;SDS011;52496;51.082;5.066;2023-04-23T11:29:46;6.50;;;2.28;;
65759;SDS011;52496;51.082;5.066;2023-04-23T11:32:17;6.53;;;1.98;;
65759;SDS011;52496;51.082;5.066;2023-04-23T11:34:48;5.78;;;2.28;;
65759;SDS011;52496;51.082;5.066;2023-04-23T11:37:19;7.15;;;2.63;;
65759;SDS011;52496;51.082;5.066;2023-04-23T11:39:50;4.35;;;1.95;;
65759;SDS011;52496;51.082;5.066;2023-04-23T11:42:20;7.95;;;2.20;;
65759;SDS011;52496;51.082;5.066;2023-04-23T11:44:51;5.78;;;2.20;;
65759;SDS011;52496;51.082;5.066;2023-04-23T11:47:22;5.22;;;1.77;;
65759;SDS011;52496;51.082;5.066;2023-04-23T11:49:55;6.82;;;1.95;;
65759;SDS011;52496;51.082;5.066;2023-04-23T11:52:25;12.80;;;2.20;;
65759;SDS011;52496;51.082;5.066;2023-04-23T11:54:56;4.47;;;1.90;;
65759;SDS011;52496;51.082;5.066;2023-04-23T11:57:35;5.63;;;1.90;;
65759;SDS011;52496;51.082;5.066;2023-04-23T12:00:13;4.47;;;1.90;;
65759;SDS011;52496;51.082;5.066;2023-04-23T12:02:51;11.77;;;2.40;;
65759;SDS011;52496;51.082;5.066;2023-04-23T12:08:09;5.82;;;2.35;;
65759;SDS011;52496;51.082;5.066;2023-04-23T12:10:53;4.93;;;2.20;;
65759;SDS011;52496;51.082;5.066;2023-04-23T12:13:28;5.03;;;2.08;;
65759;SDS011;52496;51.082;5.066;2023-04-23T12:16:03;6.00;;;1.55;;
65759;SDS011;52496;51.082;5.066;2023-04-23T12:18:37;5.32;;;1.85;;
65759;SDS011;52496;51.082;5.066;2023-04-23T12:21:10;8.13;;;2.13;;
65759;SDS011;52496;51.082;5.066;2023-04-23T12:23:42;5.93;;;1.77;;
65759;SDS011;52496;51.082;5.066;2023-04-23T12:26:15;6.28;;;2.25;;
65759;SDS011;52496;51.082;5.066;2023-04-23T12:28:49;5.10;;;1.80;;
65759;SDS011;52496;51.082;5.066;2023-04-23T12:31:24;6.70;;;1.80;;
65759;SDS011;52496;51.082;5.066;2023-04-23T12:34:02;5.15;;;1.70;;
65759;SDS011;52496;51.082;5.066;2023-04-23T12:36:34;6.07;;;2.30;;
65759;SDS011;52496;51.082;5.066;2023-04-23T12:39:19;3.63;;;1.63;;
65759;SDS011;52496;51.082;5.066;2023-04-23T12:41:55;4.18;;;1.83;;
65759;SDS011;52496;51.082;5.066;2023-04-23T12:44:33;14.35;;;2.15;;
65759;SDS011;52496;51.082;5.066;2023-04-23T12:47:07;8.40;;;1.88;;
65759;SDS011;52496;51.082;5.066;2023-04-23T12:49:40;6.88;;;2.00;;
65759;SDS011;52496;51.082;5.066;2023-04-23T12:52:11;7.00;;;1.90;;
65759;SDS011;52496;51.082;5.066;2023-04-23T12:54:42;6.78;;;1.95;;
65759;SDS011;52496;51.082;5.066;2023-04-23T12:57:13;5.88;;;2.03;;
65759;SDS011;52496;51.082;5.066;2023-04-23T12:59:44;8.27;;;2.70;;
65759;SDS011;52496;51.082;5.066;2023-04-23T13:02:15;3.75;;;1.73;;
65759;SDS011;52496;51.082;5.066;2023-04-23T13:04:45;7.35;;;2.40;;
65759;SDS011;52496;51.082;5.066;2023-04-23T13:07:16;5.95;;;1.90;;
65759;SDS011;52496;51.082;5.066;2023-04-23T13:09:46;6.60;;;2.08;;
65759;SDS011;52496;51.082;5.066;2023-04-23T13:12:17;7.55;;;2.13;;
65759;SDS011;52496;51.082;5.066;2023-04-23T13:14:47;5.15;;;2.03;;
65759;SDS011;52496;51.082;5.066;2023-04-23T13:17:18;7.25;;;2.28;;
65759;SDS011;52496;51.082;5.066;2023-04-23T13:19:48;4.70;;;2.00;;
65759;SDS011;52496;51.082;5.066;2023-04-23T13:22:19;9.02;;;2.60;;
65759;SDS011;52496;51.082;5.066;2023-04-23T13:24:50;7.63;;;2.10;;
65759;SDS011;52496;51.082;5.066;2023-04-23T13:27:21;5.95;;;2.10;;
65759;SDS011;52496;51.082;5.066;2023-04-23T13:29:54;9.35;;;2.05;;
65759;SDS011;52496;51.082;5.066;2023-04-23T13:32:25;5.18;;;2.38;;
65759;SDS011;52496;51.082;5.066;2023-04-23T13:35:00;8.77;;;2.95;;
65759;SDS011;52496;51.082;5.066;2023-04-23T13:37:33;7.03;;;2.08;;
65759;SDS011;52496;51.082;5.066;2023-04-23T13:40:04;6.05;;;2.17;;
65759;SDS011;52496;51.082;5.066;2023-04-23T13:42:35;7.95;;;2.35;;
65759;SDS011;52496;51.082;5.066;2023-04-23T13:45:06;7.10;;;2.17;;
65759;SDS011;52496;51.082;5.066;2023-04-23T13:47:37;7.80;;;2.30;;
65759;SDS011;52496;51.082;5.066;2023-04-23T13:50:07;6.65;;;2.50;;
65759;SDS011;52496;51.082;5.066;2023-04-23T13:52:40;4.53;;;1.90;;
65759;SDS011;52496;51.082;5.066;2023-04-23T13:55:11;5.38;;;2.17;;
65759;SDS011;52496;51.082;5.066;2023-04-23T13:57:41;7.00;;;2.35;;
65759;SDS011;52496;51.082;5.066;2023-04-23T14:00:12;4.07;;;1.73;;
65759;SDS011;52496;51.082;5.066;2023-04-23T14:02:43;7.65;;;2.15;;
65759;SDS011;52496;51.082;5.066;2023-04-23T14:05:14;7.47;;;2.58;;
65759;SDS011;52496;51.082;5.066;2023-04-23T14:07:44;7.32;;;2.50;;
65759;SDS011;52496;51.082;5.066;2023-04-23T14:10:15;5.80;;;2.10;;
65759;SDS011;52496;51.082;5.066;2023-04-23T14:12:46;5.07;;;1.90;;
65759;SDS011;52496;51.082;5.066;2023-04-23T14:15:17;4.47;;;1.88;;
65759;SDS011;52496;51.082;5.066;2023-04-23T14:17:48;3.80;;;2.00;;
65759;SDS011;52496;51.082;5.066;2023-04-23T14:20:19;3.75;;;2.00;;
65759;SDS011;52496;51.082;5.066;2023-04-23T14:22:50;12.35;;;2.22;;
65759;SDS011;52496;51.082;5.066;2023-04-23T14:25:29;7.45;;;2.22;;
65759;SDS011;52496;51.082;5.066;2023-04-23T14:28:15;7.25;;;2.42;;
65759;SDS011;52496;51.082;5.066;2023-04-23T14:30:56;5.20;;;2.42;;
65759;SDS011;52496;51.082;5.066;2023-04-23T14:33:27;6.10;;;2.42;;
65759;SDS011;52496;51.082;5.066;2023-04-23T14:35:57;8.63;;;2.67;;
65759;SDS011;52496;51.082;5.066;2023-04-23T14:38:28;5.55;;;2.67;;
65759;SDS011;52496;51.082;5.066;2023-04-23T14:40:59;5.40;;;2.72;;
65759;SDS011;52496;51.082;5.066;2023-04-23T14:43:29;12.68;;;3.83;;
65759;SDS011;52496;51.082;5.066;2023-04-23T14:46:00;9.48;;;2.58;;
65759;SDS011;52496;51.082;5.066;2023-04-23T14:48:32;6.28;;;2.55;;
65759;SDS011;52496;51.082;5.066;2023-04-23T14:51:02;7.05;;;2.50;;
65759;SDS011;52496;51.082;5.066;2023-04-23T14:53:33;4.55;;;2.38;;
65759;SDS011;52496;51.082;5.066;2023-04-23T14:56:03;11.52;;;4.85;;
65759;SDS011;52496;51.082;5.066;2023-04-23T14:58:35;7.65;;;4.10;;
65759;SDS011;52496;51.082;5.066;2023-04-23T15:01:05;12.13;;;5.18;;
65759;SDS011;52496;51.082;5.066;2023-04-23T15:03:36;11.20;;;5.10;;
65759;SDS011;52496;51.082;5.066;2023-04-23T15:06:06;11.75;;;6.18;;
65759;SDS011;52496;51.082;5.066;2023-04-23T15:08:38;12.32;;;6.43;;
65759;SDS011;52496;51.082;5.066;2023-04-23T15:11:09;9.80;;;6.20;;
65759;SDS011;52496;51.082;5.066;2023-04-23T15:13:43;11.20;;;7.50;;
65759;SDS011;52496;51.082;5.066;2023-04-23T15:16:28;16.98;;;12.77;;